sensor_id;sensor_type;location;lat;lon;timestamp;pressure;altitude;pressure_sealevel;temperature;humidity
7614;BME280;3848;42.016;23.098;2022-10-23T00:00:11;97726.88;;;10.95;100.00
7614;BME280;3848;42.016;23.098;2022-10-23T00:02:38;97726.03;;;10.95;100.00
7614;BME280;3848;42.016;23.098;2022-10-23T00:05:05;97725.19;;;10.93;100.00
7614;BME280;3848;42.016;23.098;2022-10-23T00:07:32;97704.84;;;10.82;100.00
7614;BME280;3848;42.016;23.098;2022-10-23T00:09:59;97726.88;;;10.92;100.00
7614;BME280;3848;42.016;23.098;2022-10-23T00:12:27;97718.41;;;10.87;100.00
7614;BME280;3848;42.016;23.098;2022-10-23T00:14:54;97720.94;;;10.78;100.00
7614;BME280;3848;42.016;23.098;2022-10-23T00:17:21;97716.72;;;10.73;100.00
7614;BME280;3848;42.016;23.098;2022-10-23T00:19:47;97715.03;;;10.67;100.00
7614;BME280;3848;42.016;23.098;2022-10-23T00:22:14;97726.88;;;10.62;100.00
7614;BME280;3848;42.016;23.098;2022-10-23T00:24:41;97720.06;;;10.56;100.00
7614;BME280;3848;42.016;23.098;2022-10-23T00:27:08;97720.91;;;10.51;100.00
7614;BME280;3848;42.016;23.098;2022-10-23T00:29:36;97713.28;;;10.51;100.00
7614;BME280;3848;42.016;23.098;2022-10-23T00:32:03;97699.75;;;10.47;100.00
7614;BME280;3848;42.016;23.098;2022-10-23T00:34:30;97710.72;;;10.38;100.00
7614;BME280;3848;42.016;23.098;2022-10-23T00:36:57;97714.09;;;10.34;100.00
7614;BME280;3848;42.016;23.098;2022-10-23T00:39:23;97716.66;;;10.34;100.00
7614;BME280;3848;42.016;23.098;2022-10-23T00:41:50;97711.56;;;10.33;100.00
7614;BME280;3848;42.016;23.098;2022-10-23T00:47:21;97716.66;;;10.36;100.00
7614;BME280;3848;42.016;23.098;2022-10-23T00:49:48;97710.72;;;10.32;100.00
7614;BME280;3848;42.016;23.098;2022-10-23T00:52:15;97716.66;;;10.37;100.00
7614;BME280;3848;42.016;23.098;2022-10-23T00:54:42;97714.94;;;10.36;100.00
7614;BME280;3848;42.016;23.098;2022-10-23T00:57:12;97714.09;;;10.39;100.00
7614;BME280;3848;42.016;23.098;2022-10-23T00:59:39;97716.66;;;10.39;100.00
7614;BME280;3848;42.016;23.098;2022-10-23T01:02:06;97717.53;;;10.41;100.00
7614;BME280;3848;42.016;23.098;2022-10-23T01:04:35;97713.25;;;10.37;100.00
7614;BME280;3848;42.016;23.098;2022-10-23T01:07:06;97727.66;;;10.39;100.00
7614;BME280;3848;42.016;23.098;2022-10-23T01:09:38;97717.50;;;10.33;100.00
7614;BME280;3848;42.016;23.098;2022-10-23T01:12:11;97714.09;;;10.34;100.00
7614;BME280;3848;42.016;23.098;2022-10-23T01:14:43;97715.81;;;10.38;100.00
7614;BME280;3848;42.016;23.098;2022-10-23T01:17:19;97718.38;;;10.46;100.00
7614;BME280;3848;42.016;23.098;2022-10-23T01:20:00;97715.00;;;10.47;100.00
7614;BME280;3848;42.016;23.098;2022-10-23T01:22:47;97709.88;;;10.36;100.00
7614;BME280;3848;42.016;23.098;2022-10-23T01:25:28;97733.59;;;10.35;100.00
7614;BME280;3848;42.016;23.098;2022-10-23T01:28:04;97743.75;;;10.34;100.00
7614;BME280;3848;42.016;23.098;2022-10-23T01:30:34;97742.88;;;10.30;100.00
7614;BME280;3848;42.016;23.098;2022-10-23T01:33:06;97732.72;;;10.30;100.00
7614;BME280;3848;42.016;23.098;2022-10-23T01:35:36;97737.81;;;10.30;100.00
7614;BME280;3848;42.016;23.098;2022-10-23T01:38:10;97727.66;;;10.33;100.00
7614;BME280;3848;42.016;23.098;2022-10-23T01:40:43;97716.66;;;10.31;100.00
7614;BME280;3848;42.016;23.098;2022-10-23T01:43:18;97734.41;;;10.31;100.00
7614;BME280;3848;42.016;23.098;2022-10-23T01:45:48;97747.97;;;10.27;100.00
7614;BME280;3848;42.016;23.098;2022-10-23T01:48:18;97741.94;;;10.10;100.00
7614;BME280;3848;42.016;23.098;2022-10-23T01:50:49;97758.88;;;10.17;100.00
7614;BME280;3848;42.016;23.098;2022-10-23T01:53:17;97753.81;;;10.20;100.00
7614;BME280;3848;42.016;23.098;2022-10-23T01:55:45;97759.81;;;10.25;100.00
7614;BME280;3848;42.016;23.098;2022-10-23T01:58:15;97754.75;;;10.30;100.00
7614;BME280;3848;42.016;23.098;2022-10-23T02:00:45;97749.66;;;10.25;100.00
7614;BME280;3848;42.016;23.098;2022-10-23T02:03:14;97754.66;;;10.19;100.00
7614;BME280;3848;42.016;23.098;2022-10-23T02:05:43;97744.47;;;10.08;100.00
7614;BME280;3848;42.016;23.098;2022-10-23T02:08:11;97757.16;;;10.01;100.00
7614;BME280;3848;42.016;23.098;2022-10-23T02:10:47;97750.31;;;9.89;100.00
7614;BME280;3848;42.016;23.098;2022-10-23T02:13:24;97749.44;;;9.80;100.00
7614;BME280;3848;42.016;23.098;2022-10-23T02:15:55;97755.31;;;9.77;100.00
7614;BME280;3848;42.016;23.098;2022-10-23T02:18:33;97755.31;;;9.74;100.00
7614;BME280;3848;42.016;23.098;2022-10-23T02:21:06;97753.63;;;9.77;100.00
7614;BME280;3848;42.016;23.098;2022-10-23T02:23:38;97761.28;;;9.81;100.00
7614;BME280;3848;42.016;23.098;2022-10-23T02:26:10;97766.38;;;9.84;100.00
7614;BME280;3848;42.016;23.098;2022-10-23T02:28:46;97767.25;;;9.89;100.00
7614;BME280;3848;42.016;23.098;2022-10-23T02:31:16;97752.81;;;9.80;100.00
7614;BME280;3848;42.016;23.098;2022-10-23T02:33:45;97756.22;;;9.84;100.00
7614;BME280;3848;42.016;23.098;2022-10-23T02:36:12;97753.69;;;9.85;100.00
7614;BME280;3848;42.016;23.098;2022-10-23T02:38:41;97755.41;;;9.91;100.00
7614;BME280;3848;42.016;23.098;2022-10-23T02:41:34;97761.31;;;9.84;100.00
7614;BME280;3848;42.016;23.098;2022-10-23T02:44:20;97761.22;;;9.74;100.00
7614;BME280;3848;42.016;23.098;2022-10-23T02:46:57;97760.38;;;9.72;100.00
7614;BME280;3848;42.016;23.098;2022-10-23T02:49:30;97758.69;;;9.74;100.00
7614;BME280;3848;42.016;23.098;2022-10-23T02:52:07;97764.63;;;9.73;100.00
7614;BME280;3848;42.016;23.098;2022-10-23T02:54:46;97762.03;;;9.64;100.00
7614;BME280;3848;42.016;23.098;2022-10-23T02:57:21;97772.19;;;9.64;100.00
7614;BME280;3848;42.016;23.098;2022-10-23T02:59:56;97772.19;;;9.63;100.00
7614;BME280;3848;42.016;23.098;2022-10-23T03:02:30;97764.56;;;9.58;100.00
7614;BME280;3848;42.016;23.098;2022-10-23T03:04:59;97762.91;;;9.66;100.00
7614;BME280;3848;42.016;23.098;2022-10-23T03:07:26;97761.22;;;9.70;100.00
7614;BME280;3848;42.016;23.098;2022-10-23T03:09:53;97768.84;;;9.73;100.00
7614;BME280;3848;42.016;23.098;2022-10-23T03:12:20;97774.81;;;9.81;100.00
7614;BME280;3848;42.016;23.098;2022-10-23T03:14:47;97787.53;;;9.87;100.00
7614;BME280;3848;42.016;23.098;2022-10-23T03:17:15;97774.84;;;9.89;100.00
7614;BME280;3848;42.016;23.098;2022-10-23T03:19:42;97786.69;;;9.85;100.00
7614;BME280;3848;42.016;23.098;2022-10-23T03:22:08;97779.94;;;9.89;100.00
7614;BME280;3848;42.016;23.098;2022-10-23T03:24:35;97783.31;;;9.92;100.00
7614;BME280;3848;42.016;23.098;2022-10-23T03:27:02;97779.94;;;9.95;100.00
7614;BME280;3848;42.016;23.098;2022-10-23T03:29:29;97788.41;;;9.97;100.00
7614;BME280;3848;42.016;23.098;2022-10-23T03:31:56;97798.56;;;9.97;100.00
7614;BME280;3848;42.016;23.098;2022-10-23T03:34:24;97790.94;;;9.88;100.00
7614;BME280;3848;42.016;23.098;2022-10-23T03:36:51;97788.31;;;9.78;100.00
7614;BME280;3848;42.016;23.098;2022-10-23T03:39:18;97783.19;;;9.66;100.00
7614;BME280;3848;42.016;23.098;2022-10-23T03:41:44;97779.78;;;9.63;100.00
7614;BME280;3848;42.016;23.098;2022-10-23T03:44:11;97788.25;;;9.63;100.00
7614;BME280;3848;42.016;23.098;2022-10-23T03:46:38;97789.94;;;9.64;100.00
7614;BME280;3848;42.016;23.098;2022-10-23T03:49:05;97793.31;;;9.63;100.00
7614;BME280;3848;42.016;23.098;2022-10-23T03:51:34;97796.72;;;9.65;100.00
7614;BME280;3848;42.016;23.098;2022-10-23T03:54:01;97807.72;;;9.64;100.00
7614;BME280;3848;42.016;23.098;2022-10-23T03:56:27;97794.09;;;9.56;100.00
7614;BME280;3848;42.016;23.098;2022-10-23T03:58:54;97785.59;;;9.46;100.00
7614;BME280;3848;42.016;23.098;2022-10-23T04:01:21;97789.84;;;9.52;100.00
7614;BME280;3848;42.016;23.098;2022-10-23T04:03:48;97790.69;;;9.50;100.00
7614;BME280;3848;42.016;23.098;2022-10-23T04:06:15;97794.06;;;9.47;100.00
7614;BME280;3848;42.016;23.098;2022-10-23T04:08:43;97788.94;;;9.41;100.00
7614;BME280;3848;42.016;23.098;2022-10-23T04:11:10;97792.34;;;9.41;100.00
7614;BME280;3848;42.016;23.098;2022-10-23T04:13:37;97797.41;;;9.41;100.00
7614;BME280;3848;42.016;23.098;2022-10-23T04:16:04;97797.38;;;9.38;100.00
7614;BME280;3848;42.016;23.098;2022-10-23T04:18:30;97790.56;;;9.31;100.00
7614;BME280;3848;42.016;23.098;2022-10-23T04:20:57;97799.03;;;9.36;100.00
7614;BME280;3848;42.016;23.098;2022-10-23T04:23:24;97810.03;;;9.35;100.00
7614;BME280;3848;42.016;23.098;2022-10-23T04:25:54;97806.63;;;9.32;100.00
7614;BME280;3848;42.016;23.098;2022-10-23T04:28:21;97786.19;;;9.13;100.00
7614;BME280;3848;42.016;23.098;2022-10-23T04:30:48;97808.16;;;9.14;100.00
7614;BME280;3848;42.016;23.098;2022-10-23T04:33:15;97802.25;;;9.14;100.00
7614;BME280;3848;42.016;23.098;2022-10-23T04:35:42;97811.47;;;9.06;100.00
7614;BME280;3848;42.016;23.098;2022-10-23T04:38:09;97794.59;;;9.09;100.00
7614;BME280;3848;42.016;23.098;2022-10-23T04:40:36;97803.06;;;9.08;100.00
7614;BME280;3848;42.016;23.098;2022-10-23T04:43:07;97814.00;;;9.06;100.00
7614;BME280;3848;42.016;23.098;2022-10-23T04:45:34;97821.63;;;9.07;100.00
7614;BME280;3848;42.016;23.098;2022-10-23T04:48:01;97821.63;;;9.07;100.00
7614;BME280;3848;42.016;23.098;2022-10-23T04:50:28;97821.66;;;9.12;100.00
7614;BME280;3848;42.016;23.098;2022-10-23T04:52:55;97820.00;;;9.15;100.00
7614;BME280;3848;42.016;23.098;2022-10-23T04:55:23;97816.59;;;9.10;100.00
7614;BME280;3848;42.016;23.098;2022-10-23T04:57:50;97836.78;;;8.98;100.00
7614;BME280;3848;42.016;23.098;2022-10-23T05:00:18;97842.59;;;8.90;100.00
7614;BME280;3848;42.016;23.098;2022-10-23T05:02:45;97849.34;;;8.89;100.00
7614;BME280;3848;42.016;23.098;2022-10-23T05:05:12;97854.41;;;8.89;100.00
7614;BME280;3848;42.016;23.098;2022-10-23T05:07:39;97837.47;;;8.85;100.00
7614;BME280;3848;42.016;23.098;2022-10-23T05:10:06;97846.00;;;8.95;100.00
7614;BME280;3848;42.016;23.098;2022-10-23T05:12:33;97849.44;;;8.97;100.00
7614;BME280;3848;42.016;23.098;2022-10-23T05:15:00;97846.06;;;8.99;100.00
7614;BME280;3848;42.016;23.098;2022-10-23T05:17:31;97841.00;;;8.99;100.00
7614;BME280;3848;42.016;23.098;2022-10-23T05:20:02;97821.47;;;8.89;100.00
7614;BME280;3848;42.016;23.098;2022-10-23T05:22:31;97826.56;;;8.95;100.00
7614;BME280;3848;42.016;23.098;2022-10-23T05:25:00;97837.59;;;8.97;100.00
7614;BME280;3848;42.016;23.098;2022-10-23T05:27:27;97846.00;;;8.93;100.00
7614;BME280;3848;42.016;23.098;2022-10-23T05:29:54;97856.13;;;8.93;100.00
7614;BME280;3848;42.016;23.098;2022-10-23T05:32:21;97851.88;;;8.89;100.00
7614;BME280;3848;42.016;23.098;2022-10-23T05:34:51;97856.97;;;8.92;100.00
7614;BME280;3848;42.016;23.098;2022-10-23T05:37:18;97861.28;;;8.98;100.00
7614;BME280;3848;42.016;23.098;2022-10-23T05:39:45;97867.22;;;9.03;100.00
7614;BME280;3848;42.016;23.098;2022-10-23T05:42:12;97879.94;;;9.06;100.00
7614;BME280;3848;42.016;23.098;2022-10-23T05:44:39;97890.06;;;9.06;100.00
7614;BME280;3848;42.016;23.098;2022-10-23T05:47:06;97882.50;;;9.09;100.00
7614;BME280;3848;42.016;23.098;2022-10-23T05:49:33;97887.66;;;9.16;100.00
7614;BME280;3848;42.016;23.098;2022-10-23T05:52:01;97869.03;;;9.16;100.00
7614;BME280;3848;42.016;23.098;2022-10-23T05:54:28;97873.38;;;9.28;100.00
7614;BME280;3848;42.016;23.098;2022-10-23T05:56:55;97890.41;;;9.42;100.00
7614;BME280;3848;42.016;23.098;2022-10-23T05:59:22;97890.44;;;9.47;100.00
7614;BME280;3848;42.016;23.098;2022-10-23T06:01:49;97882.88;;;9.50;100.00
7614;BME280;3848;42.016;23.098;2022-10-23T06:04:16;97881.19;;;9.52;100.00
7614;BME280;3848;42.016;23.098;2022-10-23T06:06:44;97879.53;;;9.57;100.00
7614;BME280;3848;42.016;23.098;2022-10-23T06:09:13;97860.03;;;9.48;100.00
7614;BME280;3848;42.016;23.098;2022-10-23T06:11:40;97882.13;;;9.63;100.00
7614;BME280;3848;42.016;23.098;2022-10-23T06:14:07;97885.56;;;9.71;100.00
7614;BME280;3848;42.016;23.098;2022-10-23T06:16:34;97874.53;;;9.66;100.00
7614;BME280;3848;42.016;23.098;2022-10-23T06:19:01;97904.31;;;9.87;100.00
7614;BME280;3848;42.016;23.098;2022-10-23T06:21:27;97905.19;;;9.97;100.00
7614;BME280;3848;42.016;23.098;2022-10-23T06:23:54;97906.09;;;10.02;100.00
7614;BME280;3848;42.016;23.098;2022-10-23T06:26:23;97923.09;;;10.11;100.00
7614;BME280;3848;42.016;23.098;2022-10-23T06:28:49;97918.03;;;10.18;100.00
7614;BME280;3848;42.016;23.098;2022-10-23T06:31:16;97907.03;;;10.18;100.00
7614;BME280;3848;42.016;23.098;2022-10-23T06:33:45;97917.31;;;10.30;100.00
7614;BME280;3848;42.016;23.098;2022-10-23T06:36:11;97920.72;;;10.39;100.00
7614;BME280;3848;42.016;23.098;2022-10-23T06:38:38;97920.81;;;10.49;100.00
7614;BME280;3848;42.016;23.098;2022-10-23T06:41:07;97916.59;;;10.61;100.00
7614;BME280;3848;42.016;23.098;2022-10-23T06:43:38;97928.53;;;10.68;100.00
7614;BME280;3848;42.016;23.098;2022-10-23T06:46:05;97929.34;;;10.66;100.00
7614;BME280;3848;42.016;23.098;2022-10-23T06:48:32;97935.31;;;10.73;100.00
7614;BME280;3848;42.016;23.098;2022-10-23T06:51:03;97937.00;;;10.75;100.00
7614;BME280;3848;42.016;23.098;2022-10-23T06:53:30;97939.59;;;10.84;100.00
7614;BME280;3848;42.016;23.098;2022-10-23T06:55:58;97932.84;;;10.86;100.00
7614;BME280;3848;42.016;23.098;2022-10-23T06:58:26;97937.09;;;10.98;100.00
7614;BME280;3848;42.016;23.098;2022-10-23T07:00:54;97937.94;;;10.98;100.00
7614;BME280;3848;42.016;23.098;2022-10-23T07:03:21;97939.66;;;11.03;100.00
7614;BME280;3848;42.016;23.098;2022-10-23T07:05:48;97944.78;;;11.06;100.00
7614;BME280;3848;42.016;23.098;2022-10-23T07:08:15;97935.44;;;11.06;100.00
7614;BME280;3848;42.016;23.098;2022-10-23T07:10:41;97940.53;;;11.14;100.00
7614;BME280;3848;42.016;23.098;2022-10-23T07:13:08;97932.06;;;11.16;100.00
7614;BME280;3848;42.016;23.098;2022-10-23T07:15:36;97929.50;;;11.12;100.00
7614;BME280;3848;42.016;23.098;2022-10-23T07:18:05;97927.88;;;11.29;100.00
7614;BME280;3848;42.016;23.098;2022-10-23T07:20:38;97933.81;;;11.34;100.00
7614;BME280;3848;42.016;23.098;2022-10-23T07:23:05;97939.75;;;11.42;100.00
7614;BME280;3848;42.016;23.098;2022-10-23T07:25:32;97948.25;;;11.53;100.00
7614;BME280;3848;42.016;23.098;2022-10-23T07:27:59;97949.09;;;11.61;100.00
7614;BME280;3848;42.016;23.098;2022-10-23T07:30:26;97945.72;;;11.73;100.00
7614;BME280;3848;42.016;23.098;2022-10-23T07:32:53;97945.78;;;11.92;100.00
7614;BME280;3848;42.016;23.098;2022-10-23T07:35:21;97949.16;;;12.00;100.00
7614;BME280;3848;42.016;23.098;2022-10-23T07:37:48;97945.78;;;12.08;100.00
7614;BME280;3848;42.016;23.098;2022-10-23T07:40:15;97950.81;;;12.24;100.00
7614;BME280;3848;42.016;23.098;2022-10-23T07:42:43;97943.19;;;12.25;100.00
7614;BME280;3848;42.016;23.098;2022-10-23T07:45:10;97955.03;;;12.40;100.00
7614;BME280;3848;42.016;23.098;2022-10-23T07:47:37;97950.78;;;12.43;100.00
7614;BME280;3848;42.016;23.098;2022-10-23T07:50:04;97953.34;;;12.51;100.00
7614;BME280;3848;42.016;23.098;2022-10-23T07:52:33;97943.97;;;12.55;100.00
7614;BME280;3848;42.016;23.098;2022-10-23T07:55:00;97947.34;;;12.70;100.00
7614;BME280;3848;42.016;23.098;2022-10-23T07:57:27;97955.78;;;12.83;100.00
7614;BME280;3848;42.016;23.098;2022-10-23T07:59:54;97948.06;;;12.97;100.00
7614;BME280;3848;42.016;23.098;2022-10-23T08:02:21;97948.00;;;13.07;100.00
7614;BME280;3848;42.016;23.098;2022-10-23T08:04:48;97944.59;;;13.16;100.00
7614;BME280;3848;42.016;23.098;2022-10-23T08:07:14;97941.97;;;13.30;100.00
7614;BME280;3848;42.016;23.098;2022-10-23T08:09:43;97938.47;;;13.45;100.00
7614;BME280;3848;42.016;23.098;2022-10-23T08:12:09;97944.28;;;13.66;100.00
7614;BME280;3848;42.016;23.098;2022-10-23T08:14:36;97940.84;;;13.75;100.00
7614;BME280;3848;42.016;23.098;2022-10-23T08:17:03;97930.44;;;13.93;100.00
7614;BME280;3848;42.016;23.098;2022-10-23T08:19:34;97934.66;;;14.00;100.00
7614;BME280;3848;42.016;23.098;2022-10-23T08:22:01;97932.81;;;14.13;100.00
7614;BME280;3848;42.016;23.098;2022-10-23T08:24:28;97919.91;;;14.27;100.00
7614;BME280;3848;42.016;23.098;2022-10-23T08:26:56;97923.16;;;14.47;100.00
7614;BME280;3848;42.016;23.098;2022-10-23T08:29:24;97911.78;;;14.71;100.00
7614;BME280;3848;42.016;23.098;2022-10-23T08:31:52;97909.00;;;14.91;100.00
7614;BME280;3848;42.016;23.098;2022-10-23T08:34:20;97911.34;;;15.06;100.00
7614;BME280;3848;42.016;23.098;2022-10-23T08:36:47;97903.47;;;15.21;100.00
7614;BME280;3848;42.016;23.098;2022-10-23T08:39:14;97914.22;;;15.46;100.00
7614;BME280;3848;42.016;23.098;2022-10-23T08:41:42;97901.06;;;15.69;100.00
7614;BME280;3848;42.016;23.098;2022-10-23T08:44:19;97911.94;;;15.85;100.00
7614;BME280;3848;42.016;23.098;2022-10-23T08:46:51;97895.44;;;15.98;100.00
7614;BME280;3848;42.016;23.098;2022-10-23T08:49:25;97895.88;;;16.22;100.00
7614;BME280;3848;42.016;23.098;2022-10-23T08:52:01;97821.88;;;16.05;100.00
7614;BME280;3848;42.016;23.098;2022-10-23T08:54:39;97907.06;;;16.67;100.00
7614;BME280;3848;42.016;23.098;2022-10-23T08:57:12;97909.31;;;16.81;100.00
7614;BME280;3848;42.016;23.098;2022-10-23T08:59:45;97889.53;;;16.87;100.00
7614;BME280;3848;42.016;23.098;2022-10-23T09:02:17;97895.78;;;17.14;100.00
7614;BME280;3848;42.016;23.098;2022-10-23T09:04:47;97826.47;;;17.13;100.00
7614;BME280;3848;42.016;23.098;2022-10-23T09:07:22;97880.31;;;17.90;100.00
7614;BME280;3848;42.016;23.098;2022-10-23T09:10:05;97876.81;;;18.25;100.00
7614;BME280;3848;42.016;23.098;2022-10-23T09:12:38;97873.16;;;18.96;97.06
7614;BME280;3848;42.016;23.098;2022-10-23T09:15:16;97872.41;;;20.01;86.42
7614;BME280;3848;42.016;23.098;2022-10-23T09:17:51;97864.91;;;21.13;71.30
7614;BME280;3848;42.016;23.098;2022-10-23T09:20:21;97854.56;;;21.99;66.00
7614;BME280;3848;42.016;23.098;2022-10-23T09:22:51;97844.34;;;22.95;59.08
7614;BME280;3848;42.016;23.098;2022-10-23T09:25:21;97846.50;;;23.59;55.80
7614;BME280;3848;42.016;23.098;2022-10-23T09:27:49;97844.56;;;24.31;54.27
7614;BME280;3848;42.016;23.098;2022-10-23T09:30:27;97837.50;;;25.00;51.55
7614;BME280;3848;42.016;23.098;2022-10-23T09:32:54;97840.97;;;25.46;49.63
7614;BME280;3848;42.016;23.098;2022-10-23T09:35:22;97832.03;;;25.66;48.63
7614;BME280;3848;42.016;23.098;2022-10-23T09:37:50;97831.84;;;25.85;48.41
7614;BME280;3848;42.016;23.098;2022-10-23T09:40:24;97824.88;;;25.99;47.24
7614;BME280;3848;42.016;23.098;2022-10-23T09:42:56;97817.94;;;26.14;49.02
7614;BME280;3848;42.016;23.098;2022-10-23T09:45:28;97812.47;;;26.47;47.36
7614;BME280;3848;42.016;23.098;2022-10-23T09:48:12;97811.38;;;26.92;44.60
7614;BME280;3848;42.016;23.098;2022-10-23T09:50:50;97821.28;;;26.87;45.54
7614;BME280;3848;42.016;23.098;2022-10-23T09:53:25;97819.13;;;26.80;45.10
7614;BME280;3848;42.016;23.098;2022-10-23T09:55:53;97767.03;;;26.92;44.63
7614;BME280;3848;42.016;23.098;2022-10-23T09:58:30;97808.78;;;27.33;45.49
7614;BME280;3848;42.016;23.098;2022-10-23T10:00:59;97800.22;;;27.71;45.05
7614;BME280;3848;42.016;23.098;2022-10-23T10:03:26;97795.03;;;27.97;43.41
7614;BME280;3848;42.016;23.098;2022-10-23T10:05:55;97791.25;;;28.13;43.04
7614;BME280;3848;42.016;23.098;2022-10-23T10:08:27;97770.69;;;28.34;43.00
7614;BME280;3848;42.016;23.098;2022-10-23T10:11:00;97770.50;;;28.74;42.80
7614;BME280;3848;42.016;23.098;2022-10-23T10:13:53;97771.91;;;28.91;39.86
7614;BME280;3848;42.016;23.098;2022-10-23T10:16:31;97769.41;;;29.13;40.20
7614;BME280;3848;42.016;23.098;2022-10-23T10:19:11;97761.13;;;28.95;41.03
7614;BME280;3848;42.016;23.098;2022-10-23T10:21:44;97762.31;;;29.26;40.08
7614;BME280;3848;42.016;23.098;2022-10-23T10:24:17;97752.31;;;29.55;40.97
7614;BME280;3848;42.016;23.098;2022-10-23T10:26:51;97747.72;;;29.70;41.15
7614;BME280;3848;42.016;23.098;2022-10-23T10:29:39;97749.53;;;29.92;41.41
7614;BME280;3848;42.016;23.098;2022-10-23T10:32:22;97733.97;;;30.01;38.75
7614;BME280;3848;42.016;23.098;2022-10-23T10:35:04;97715.28;;;30.06;38.71
7614;BME280;3848;42.016;23.098;2022-10-23T10:37:48;97732.19;;;30.13;37.62
7614;BME280;3848;42.016;23.098;2022-10-23T10:40:25;97673.25;;;29.50;37.71
7614;BME280;3848;42.016;23.098;2022-10-23T10:43:10;97710.56;;;29.98;38.45
7614;BME280;3848;42.016;23.098;2022-10-23T10:45:44;97713.81;;;30.13;38.06
7614;BME280;3848;42.016;23.098;2022-10-23T10:48:35;97713.19;;;29.98;38.06
7614;BME280;3848;42.016;23.098;2022-10-23T10:51:07;97712.88;;;30.25;37.18
7614;BME280;3848;42.016;23.098;2022-10-23T10:53:47;97705.94;;;30.35;37.76
7614;BME280;3848;42.016;23.098;2022-10-23T10:56:19;97707.59;;;30.48;37.58
7614;BME280;3848;42.016;23.098;2022-10-23T10:58:51;97694.50;;;30.37;37.29
7614;BME280;3848;42.016;23.098;2022-10-23T11:01:21;97676.63;;;30.42;36.78
7614;BME280;3848;42.016;23.098;2022-10-23T11:03:55;97697.47;;;30.43;36.62
7614;BME280;3848;42.016;23.098;2022-10-23T11:06:28;97676.13;;;30.37;37.33
7614;BME280;3848;42.016;23.098;2022-10-23T11:08:59;97686.56;;;30.59;37.06
7614;BME280;3848;42.016;23.098;2022-10-23T11:11:31;97683.63;;;30.63;37.00
7614;BME280;3848;42.016;23.098;2022-10-23T11:13:58;97670.63;;;30.62;36.69
7614;BME280;3848;42.016;23.098;2022-10-23T11:16:29;97682.72;;;30.85;37.24
7614;BME280;3848;42.016;23.098;2022-10-23T11:19:05;97667.09;;;30.84;36.62
7614;BME280;3848;42.016;23.098;2022-10-23T11:21:37;97667.75;;;30.65;36.46
7614;BME280;3848;42.016;23.098;2022-10-23T11:24:29;97670.38;;;30.54;36.19
7614;BME280;3848;42.016;23.098;2022-10-23T11:27:17;97682.78;;;30.52;36.65
7614;BME280;3848;42.016;23.098;2022-10-23T11:30:03;97673.63;;;30.46;35.94
7614;BME280;3848;42.016;23.098;2022-10-23T11:33:03;97667.03;;;30.52;36.96
7614;BME280;3848;42.016;23.098;2022-10-23T11:35:43;97642.31;;;30.22;37.42
7614;BME280;3848;42.016;23.098;2022-10-23T11:38:16;97659.31;;;30.39;36.23
7614;BME280;3848;42.016;23.098;2022-10-23T11:40:44;97658.16;;;30.32;36.50
7614;BME280;3848;42.016;23.098;2022-10-23T11:43:12;97653.22;;;30.39;36.72
7614;BME280;3848;42.016;23.098;2022-10-23T11:45:40;97647.00;;;30.51;36.68
7614;BME280;3848;42.016;23.098;2022-10-23T11:48:20;97650.47;;;30.40;36.75
7614;BME280;3848;42.016;23.098;2022-10-23T11:50:52;97643.25;;;30.32;36.87
7614;BME280;3848;42.016;23.098;2022-10-23T11:53:27;97631.91;;;30.43;36.48
7614;BME280;3848;42.016;23.098;2022-10-23T11:56:04;97630.84;;;30.34;36.80
7614;BME280;3848;42.016;23.098;2022-10-23T11:58:49;97633.50;;;30.23;37.24
7614;BME280;3848;42.016;23.098;2022-10-23T12:01:30;97624.66;;;30.24;36.76
7614;BME280;3848;42.016;23.098;2022-10-23T12:04:01;97609.44;;;30.07;37.04
7614;BME280;3848;42.016;23.098;2022-10-23T12:06:37;97610.63;;;30.03;37.93
7614;BME280;3848;42.016;23.098;2022-10-23T12:09:07;97608.72;;;29.94;37.44
7614;BME280;3848;42.016;23.098;2022-10-23T12:11:46;97606.34;;;29.68;37.23
7614;BME280;3848;42.016;23.098;2022-10-23T12:14:28;97593.81;;;29.38;38.16
7614;BME280;3848;42.016;23.098;2022-10-23T12:16:55;97594.06;;;28.89;38.70
7614;BME280;3848;42.016;23.098;2022-10-23T12:19:24;97529.31;;;28.45;38.26
7614;BME280;3848;42.016;23.098;2022-10-23T12:21:55;97585.34;;;28.77;39.13
7614;BME280;3848;42.016;23.098;2022-10-23T12:24:38;97579.56;;;28.61;38.78
7614;BME280;3848;42.016;23.098;2022-10-23T12:27:29;97578.97;;;28.69;38.39
7614;BME280;3848;42.016;23.098;2022-10-23T12:30:08;97584.63;;;28.51;38.59
7614;BME280;3848;42.016;23.098;2022-10-23T12:35:57;97556.91;;;28.01;38.60
7614;BME280;3848;42.016;23.098;2022-10-23T12:38:31;97568.78;;;28.05;39.75
7614;BME280;3848;42.016;23.098;2022-10-23T12:41:00;97574.00;;;27.81;39.59
7614;BME280;3848;42.016;23.098;2022-10-23T12:43:30;97572.56;;;27.39;40.54
7614;BME280;3848;42.016;23.098;2022-10-23T12:46:02;97569.66;;;27.18;40.70
7614;BME280;3848;42.016;23.098;2022-10-23T12:48:32;97574.31;;;26.88;41.85
7614;BME280;3848;42.016;23.098;2022-10-23T12:50:59;97568.44;;;26.71;41.85
7614;BME280;3848;42.016;23.098;2022-10-23T12:53:26;97544.16;;;26.44;41.94
7614;BME280;3848;42.016;23.098;2022-10-23T12:55:57;97566.50;;;26.34;43.07
7614;BME280;3848;42.016;23.098;2022-10-23T12:58:26;97567.16;;;26.10;42.41
7614;BME280;3848;42.016;23.098;2022-10-23T13:00:56;97556.63;;;25.85;43.16
7614;BME280;3848;42.016;23.098;2022-10-23T13:03:25;97558.50;;;25.69;43.94
7614;BME280;3848;42.016;23.098;2022-10-23T13:05:54;97563.78;;;25.53;43.28
7614;BME280;3848;42.016;23.098;2022-10-23T13:08:28;97507.78;;;25.05;44.51
7614;BME280;3848;42.016;23.098;2022-10-23T13:10:59;97555.16;;;25.24;44.48
7614;BME280;3848;42.016;23.098;2022-10-23T13:13:26;97554.75;;;25.16;44.45
7614;BME280;3848;42.016;23.098;2022-10-23T13:15:53;97558.56;;;25.10;45.10
7614;BME280;3848;42.016;23.098;2022-10-23T13:18:20;97547.38;;;24.94;45.65
7614;BME280;3848;42.016;23.098;2022-10-23T13:20:57;97549.50;;;24.87;45.73
7614;BME280;3848;42.016;23.098;2022-10-23T13:23:27;97532.19;;;24.72;46.25
7614;BME280;3848;42.016;23.098;2022-10-23T13:25:57;97562.41;;;24.89;45.83
7614;BME280;3848;42.016;23.098;2022-10-23T13:28:27;97556.34;;;24.74;46.25
7614;BME280;3848;42.016;23.098;2022-10-23T13:31:05;97577.63;;;24.81;46.41